createdAt,value
2018-10-09T00:00:53.580Z,101619.00
2018-10-09T00:03:22.384Z,101608.00
2018-10-09T00:05:51.239Z,101625.00
2018-10-09T00:08:20.074Z,101628.00
2018-10-09T00:10:48.986Z,101613.00
2018-10-09T00:13:17.810Z,101606.00
2018-10-09T00:15:46.675Z,101607.00
2018-10-09T00:18:15.518Z,101594.00
2018-10-09T00:20:44.359Z,101599.00
2018-10-09T00:23:13.203Z,101603.00
2018-10-09T00:25:42.030Z,101599.00
2018-10-09T00:28:10.879Z,101601.00
2018-10-09T00:30:39.746Z,101585.00
2018-10-09T00:33:08.570Z,101593.00
2018-10-09T00:35:37.440Z,101589.00
2018-10-09T00:38:06.497Z,101597.00
2018-10-09T00:40:35.349Z,101596.00
2018-10-09T00:43:04.199Z,101603.00
2018-10-09T00:45:33.010Z,101594.00
2018-10-09T00:48:01.843Z,101589.00
2018-10-09T00:50:30.678Z,101580.00
2018-10-09T00:52:59.533Z,101580.00
2018-10-09T00:55:28.436Z,101565.00
2018-10-09T00:57:57.296Z,101561.00
2018-10-09T01:00:26.159Z,101570.00
2018-10-09T01:02:55.038Z,101574.00
2018-10-09T01:05:23.914Z,101575.00
2018-10-09T01:07:52.823Z,101584.00
2018-10-09T01:10:21.684Z,101588.00
2018-10-09T01:12:50.583Z,101594.00
2018-10-09T01:15:19.438Z,101595.00
2018-10-09T01:17:48.340Z,101592.00
2018-10-09T01:20:21.322Z,101584.00
2018-10-09T01:22:50.195Z,101577.00
2018-10-09T01:25:19.101Z,101587.00
2018-10-09T01:27:48.728Z,101590.00
2018-10-09T01:30:17.573Z,101588.00
2018-10-09T01:32:46.421Z,101588.00
2018-10-09T01:35:15.272Z,101593.00
2018-10-09T01:37:44.117Z,101595.00
2018-10-09T01:40:12.978Z,101597.00
2018-10-09T01:42:48.525Z,101597.00
2018-10-09T01:45:17.437Z,101590.00
2018-10-09T01:47:46.318Z,101591.00
2018-10-09T01:50:15.177Z,101589.00
2018-10-09T01:52:44.062Z,101589.00
2018-10-09T01:55:12.918Z,101581.00
2018-10-09T01:57:41.835Z,101582.00
2018-10-09T02:00:11.375Z,101590.00
2018-10-09T02:02:40.578Z,101582.00
2018-10-09T02:05:09.621Z,101582.00
2018-10-09T02:07:38.507Z,101585.00
2018-10-09T02:10:07.633Z,101576.00
2018-10-09T02:12:36.533Z,101577.00
2018-10-09T02:15:06.015Z,101584.00
2018-10-09T02:17:34.861Z,101583.00
2018-10-09T02:20:03.699Z,101583.00
2018-10-09T02:22:32.580Z,101586.00
2018-10-09T02:25:01.455Z,101593.00
2018-10-09T02:27:30.299Z,101588.00
2018-10-09T02:29:59.203Z,101594.00
2018-10-09T02:32:28.086Z,101595.00
2018-10-09T02:34:57.071Z,101597.00
2018-10-09T02:37:25.898Z,101602.00
2018-10-09T02:39:54.795Z,101608.00
2018-10-09T02:42:23.631Z,101603.00
2018-10-09T02:44:52.532Z,101603.00
2018-10-09T02:47:21.378Z,101614.00
2018-10-09T02:49:50.239Z,101614.00
2018-10-09T02:52:19.094Z,101614.00
2018-10-09T02:54:47.994Z,101608.00
2018-10-09T02:57:16.851Z,101606.00
2018-10-09T02:59:45.683Z,101602.00
2018-10-09T03:02:14.567Z,101597.00
2018-10-09T03:04:43.478Z,101595.00
2018-10-09T03:07:12.378Z,101594.00
2018-10-09T03:09:41.251Z,101594.00
2018-10-09T03:12:10.143Z,101587.00
2018-10-09T03:14:38.989Z,101597.00
2018-10-09T03:17:08.410Z,101585.00
2018-10-09T03:19:37.273Z,101593.00
2018-10-09T03:22:06.130Z,101584.00
2018-10-09T03:24:34.978Z,101583.00
2018-10-09T03:27:03.819Z,101575.00
2018-10-09T03:29:32.675Z,101586.00
2018-10-09T03:32:01.543Z,101593.00
2018-10-09T03:34:30.467Z,101587.00
2018-10-09T03:36:59.302Z,101581.00
2018-10-09T03:39:28.166Z,101584.00
2018-10-09T03:41:56.985Z,101582.00
2018-10-09T03:44:25.875Z,101577.00
2018-10-09T03:46:54.718Z,101587.00
2018-10-09T03:49:23.598Z,101590.00
2018-10-09T03:51:52.554Z,101589.00
2018-10-09T03:54:21.401Z,101588.00
2018-10-09T03:56:50.236Z,101597.00
2018-10-09T03:59:19.263Z,101587.00
2018-10-09T04:01:48.245Z,101595.00
2018-10-09T04:04:17.183Z,101593.00
2018-10-09T04:06:46.076Z,101587.00
2018-10-09T04:09:15.083Z,101583.00
2018-10-09T04:11:44.184Z,101584.00
2018-10-09T04:14:13.055Z,101582.00
2018-10-09T04:16:41.886Z,101586.00
2018-10-09T04:19:10.767Z,101595.00
2018-10-09T04:21:39.656Z,101588.00
2018-10-09T04:24:08.519Z,101588.00
2018-10-09T04:26:37.403Z,101578.00
2018-10-09T04:29:07.227Z,101582.00
2018-10-09T04:31:36.084Z,101579.00
2018-10-09T04:34:04.991Z,101586.00
2018-10-09T04:36:33.861Z,101584.00
2018-10-09T04:39:02.759Z,101586.00
2018-10-09T04:41:31.595Z,101592.00
2018-10-09T04:44:00.464Z,101591.00
2018-10-09T04:46:29.363Z,101582.00
2018-10-09T04:48:58.249Z,101581.00
2018-10-09T04:51:27.143Z,101574.00
2018-10-09T04:53:56.342Z,101578.00
2018-10-09T04:56:25.231Z,101582.00
2018-10-09T04:58:54.177Z,101579.00
2018-10-09T05:01:23.038Z,101590.00
2018-10-09T05:03:51.878Z,101590.00
2018-10-09T05:06:20.887Z,101580.00
2018-10-09T05:08:49.746Z,101588.00
2018-10-09T05:11:18.695Z,101590.00
2018-10-09T05:13:47.562Z,101594.00
2018-10-09T05:16:16.439Z,101599.00
2018-10-09T05:18:45.350Z,101596.00
2018-10-09T05:21:14.220Z,101596.00
2018-10-09T05:23:43.139Z,101595.00
2018-10-09T05:26:11.999Z,101599.00
2018-10-09T05:28:40.915Z,101603.00
2018-10-09T05:31:10.101Z,101609.00
2018-10-09T05:33:38.940Z,101619.00
2018-10-09T05:36:07.843Z,101626.00
2018-10-09T05:38:36.763Z,101636.00
2018-10-09T05:41:06.194Z,101626.00
2018-10-09T05:43:35.095Z,101631.00
2018-10-09T05:46:04.076Z,101623.00
2018-10-09T05:48:32.947Z,101637.00
2018-10-09T05:51:01.827Z,101638.00
2018-10-09T05:53:30.714Z,101645.00
2018-10-09T05:55:59.576Z,101645.00
2018-10-09T05:58:28.535Z,101658.00
2018-10-09T06:00:57.394Z,101649.00
2018-10-09T06:03:26.347Z,101650.00
2018-10-09T06:05:55.257Z,101660.00
2018-10-09T06:08:24.155Z,101658.00
2018-10-09T06:10:53.019Z,101665.00
2018-10-09T06:13:21.910Z,101667.00
2018-10-09T06:15:51.015Z,101672.00
2018-10-09T06:18:19.952Z,101660.00
2018-10-09T06:20:48.837Z,101659.00
2018-10-09T06:23:17.954Z,101668.00
2018-10-09T06:25:46.957Z,101658.00
2018-10-09T06:28:15.831Z,101656.00
2018-10-09T06:30:44.698Z,101659.00
2018-10-09T06:33:13.553Z,101661.00
2018-10-09T06:35:42.382Z,101666.00
2018-10-09T06:38:11.224Z,101659.00
2018-10-09T06:40:40.249Z,101658.00
2018-10-09T06:43:09.124Z,101654.00
2018-10-09T06:45:38.038Z,101663.00
2018-10-09T06:48:06.948Z,101672.00
2018-10-09T06:50:35.873Z,101666.00
2018-10-09T06:53:04.695Z,101668.00
2018-10-09T06:55:33.592Z,101663.00
2018-10-09T06:58:02.449Z,101668.00
2018-10-09T07:00:31.344Z,101672.00
2018-10-09T07:03:00.231Z,101679.00
2018-10-09T07:05:29.083Z,101681.00
2018-10-09T07:07:57.980Z,101678.00
2018-10-09T07:10:27.466Z,101677.00
2018-10-09T07:12:56.328Z,101678.00
2018-10-09T07:15:25.163Z,101684.00
2018-10-09T07:17:54.064Z,101690.00
2018-10-09T07:20:22.959Z,101695.00
2018-10-09T07:22:51.878Z,101691.00
2018-10-09T07:25:20.732Z,101693.00
2018-10-09T07:27:49.603Z,101684.00
2018-10-09T07:30:18.473Z,101682.00
2018-10-09T07:32:47.593Z,101683.00
2018-10-09T07:35:16.456Z,101687.00
2018-10-09T07:37:46.218Z,101699.00
2018-10-09T07:40:15.061Z,101703.00
2018-10-09T07:42:43.928Z,101700.00
2018-10-09T07:45:12.837Z,101701.00
2018-10-09T07:47:41.727Z,101707.00
2018-10-09T07:50:10.640Z,101704.00
2018-10-09T07:52:39.690Z,101708.00
2018-10-09T07:55:08.499Z,101715.00
2018-10-09T07:57:37.370Z,101714.00
2018-10-09T08:00:06.265Z,101726.00
2018-10-09T08:02:35.127Z,101712.00
2018-10-09T08:05:19.014Z,101717.00
2018-10-09T08:07:48.061Z,101725.00
2018-10-09T08:10:16.929Z,101723.00
2018-10-09T08:12:45.866Z,101727.00
2018-10-09T08:15:14.996Z,101719.00
2018-10-09T08:17:43.930Z,101715.00
2018-10-09T08:20:12.798Z,101709.00
2018-10-09T08:22:42.282Z,101717.00
2018-10-09T08:25:10.967Z,101721.00
2018-10-09T08:27:39.880Z,101729.00
2018-10-09T08:30:08.736Z,101730.00
2018-10-09T08:32:37.587Z,101731.00
2018-10-09T08:35:06.416Z,101734.00
2018-10-09T08:37:35.843Z,101737.00
2018-10-09T08:40:05.324Z,101735.00
2018-10-09T08:42:34.166Z,101733.00
2018-10-09T08:45:03.011Z,101746.00
2018-10-09T08:47:31.928Z,101742.00
2018-10-09T08:50:00.799Z,101734.00
2018-10-09T08:52:29.666Z,101752.00
2018-10-09T08:55:00.769Z,101757.00
2018-10-09T08:57:29.710Z,101759.00
2018-10-09T08:59:58.474Z,101763.00
2018-10-09T09:02:27.383Z,101761.00
2018-10-09T09:04:56.223Z,101759.00
2018-10-09T09:07:25.068Z,101767.00
2018-10-09T09:09:53.914Z,101764.00
2018-10-09T09:12:22.824Z,101769.00
2018-10-09T09:14:51.692Z,101753.00
2018-10-09T09:17:20.644Z,101761.00
2018-10-09T09:19:49.500Z,101771.00
2018-10-09T09:22:18.365Z,101777.00
2018-10-09T09:24:47.269Z,101788.00
2018-10-09T09:27:16.345Z,101785.00
2018-10-09T09:29:45.188Z,101782.00
2018-10-09T09:32:14.157Z,101777.00
2018-10-09T09:34:43.025Z,101779.00
2018-10-09T09:37:11.871Z,101783.00
2018-10-09T09:39:40.800Z,101785.00
2018-10-09T09:42:09.717Z,101778.00
2018-10-09T09:44:38.652Z,101784.00
2018-10-09T09:47:07.534Z,101779.00
2018-10-09T09:49:36.487Z,101781.00
2018-10-09T09:52:12.021Z,101781.00
2018-10-09T09:54:41.091Z,101771.00
2018-10-09T09:57:10.025Z,101772.00
2018-10-09T09:59:38.866Z,101766.00
2018-10-09T10:02:08.149Z,101769.00
2018-10-09T10:04:37.041Z,101771.00
2018-10-09T10:07:06.146Z,101778.00
2018-10-09T10:09:35.028Z,101785.00
2018-10-09T10:12:03.888Z,101775.00
2018-10-09T10:14:32.779Z,101766.00
2018-10-09T10:17:01.665Z,101765.00
2018-10-09T10:19:30.572Z,101759.00
2018-10-09T10:21:59.440Z,101760.00
2018-10-09T10:24:28.330Z,101765.00
2018-10-09T10:26:57.167Z,101773.00
2018-10-09T10:29:26.037Z,101766.00
2018-10-09T10:31:54.928Z,101771.00
2018-10-09T10:34:23.801Z,101769.00
2018-10-09T10:36:52.682Z,101772.00
2018-10-09T10:39:21.574Z,101761.00
2018-10-09T10:41:50.472Z,101761.00
2018-10-09T10:44:19.336Z,101771.00
2018-10-09T10:46:48.198Z,101773.00
2018-10-09T10:49:17.159Z,101773.00
2018-10-09T10:51:46.032Z,101770.00
2018-10-09T10:54:14.900Z,101763.00
2018-10-09T10:56:43.795Z,101758.00
2018-10-09T10:59:12.831Z,101764.00
2018-10-09T11:01:41.750Z,101768.00
2018-10-09T11:04:10.566Z,101763.00
2018-10-09T11:06:39.394Z,101761.00
2018-10-09T11:09:10.113Z,101754.00
2018-10-09T11:11:39.077Z,101749.00
2018-10-09T11:14:08.073Z,101750.00
2018-10-09T11:16:36.911Z,101750.00
2018-10-09T11:19:05.785Z,101739.00
2018-10-09T11:21:37.045Z,101729.00
2018-10-09T11:24:06.114Z,101735.00
2018-10-09T11:26:34.958Z,101732.00
2018-10-09T11:29:03.798Z,101729.00
2018-10-09T11:31:32.772Z,101729.00
2018-10-09T11:34:01.684Z,101722.00
2018-10-09T11:36:30.556Z,101724.00
2018-10-09T11:38:59.444Z,101724.00
2018-10-09T11:41:28.314Z,101723.00
2018-10-09T11:43:57.147Z,101723.00
2018-10-09T11:46:26.040Z,101718.00
2018-10-09T11:48:55.010Z,101718.00
2018-10-09T11:51:23.883Z,101725.00
2018-10-09T11:53:52.839Z,101708.00
2018-10-09T11:56:21.780Z,101713.00
2018-10-09T11:58:50.697Z,101715.00
2018-10-09T12:01:19.636Z,101722.00
2018-10-09T12:03:48.614Z,101720.00
2018-10-09T12:06:17.788Z,101727.00
2018-10-09T12:08:46.775Z,101722.00
2018-10-09T12:11:15.579Z,101718.00
2018-10-09T12:13:44.468Z,101724.00
2018-10-09T12:16:14.128Z,101724.00
2018-10-09T12:18:42.988Z,101726.00
2018-10-09T12:21:11.867Z,101714.00
2018-10-09T12:23:40.747Z,101724.00
2018-10-09T12:26:09.646Z,101721.00
2018-10-09T12:28:38.489Z,101721.00
2018-10-09T12:31:07.362Z,101715.00
2018-10-09T12:33:36.243Z,101715.00
2018-10-09T12:36:05.187Z,101713.00
2018-10-09T12:38:35.939Z,101716.00
2018-10-09T12:41:04.940Z,101704.00
2018-10-09T12:43:34.215Z,101715.00
2018-10-09T12:46:03.120Z,101713.00
2018-10-09T12:48:32.138Z,101705.00
2018-10-09T12:51:00.986Z,101712.00
2018-10-09T12:53:29.827Z,101715.00
2018-10-09T12:55:58.776Z,101708.00
2018-10-09T12:58:27.751Z,101711.00
2018-10-09T13:00:56.701Z,101712.00
2018-10-09T13:03:25.657Z,101708.00
2018-10-09T13:06:01.322Z,101706.00
2018-10-09T13:08:30.183Z,101699.00
2018-10-09T13:10:59.135Z,101697.00
2018-10-09T13:13:28.070Z,101696.00
2018-10-09T13:15:56.988Z,101691.00
2018-10-09T13:18:25.874Z,101697.00
2018-10-09T13:20:54.996Z,101695.00
2018-10-09T13:23:23.816Z,101696.00
2018-10-09T13:25:52.725Z,101692.00
2018-10-09T13:28:21.584Z,101687.00
2018-10-09T13:30:50.472Z,101686.00
2018-10-09T13:33:19.319Z,101688.00
2018-10-09T13:35:48.637Z,101685.00
2018-10-09T13:38:17.587Z,101686.00
2018-10-09T13:40:46.422Z,101691.00
2018-10-09T13:43:15.285Z,101689.00
2018-10-09T13:45:44.202Z,101687.00
2018-10-09T13:48:13.028Z,101678.00
2018-10-09T13:50:41.909Z,101682.00
2018-10-09T13:53:10.735Z,101676.00
2018-10-09T13:55:39.552Z,101673.00
2018-10-09T13:58:08.457Z,101666.00
2018-10-09T14:00:37.318Z,101663.00
2018-10-09T14:03:06.361Z,101665.00
2018-10-09T14:05:35.154Z,101658.00
2018-10-09T14:08:03.999Z,101655.00
2018-10-09T14:10:32.891Z,101658.00
2018-10-09T14:13:01.866Z,101650.00
2018-10-09T14:15:30.872Z,101647.00
2018-10-09T14:17:59.767Z,101642.00
2018-10-09T14:20:28.716Z,101650.00
2018-10-09T14:22:57.713Z,101634.00
2018-10-09T14:25:26.612Z,101638.00
2018-10-09T14:27:55.520Z,101638.00
2018-10-09T14:30:24.975Z,101627.00
2018-10-09T14:32:54.465Z,101619.00
2018-10-09T14:35:23.609Z,101608.00
2018-10-09T14:37:52.508Z,101612.00
2018-10-09T14:40:21.550Z,101601.00
2018-10-09T14:42:50.439Z,101607.00
2018-10-09T14:45:19.693Z,101605.00
2018-10-09T14:47:48.591Z,101606.00
2018-10-09T14:50:17.547Z,101605.00
2018-10-09T14:52:46.367Z,101603.00
2018-10-09T14:55:15.291Z,101612.00
2018-10-09T14:57:44.127Z,101615.00
2018-10-09T15:00:13.024Z,101615.00
2018-10-09T15:02:42.224Z,101612.00
2018-10-09T15:05:11.556Z,101609.00
2018-10-09T15:07:40.472Z,101599.00
2018-10-09T15:10:09.527Z,101605.00
2018-10-09T15:12:45.676Z,101617.00
2018-10-09T15:15:14.782Z,101615.00
2018-10-09T15:17:43.686Z,101624.00
2018-10-09T15:20:13.453Z,101623.00
2018-10-09T15:22:42.355Z,101625.00
2018-10-09T15:25:11.344Z,101621.00
2018-10-09T15:27:40.947Z,101625.00
2018-10-09T15:30:09.847Z,101629.00
2018-10-09T15:32:39.975Z,101631.00
2018-10-09T15:35:08.874Z,101636.00
2018-10-09T15:37:37.837Z,101646.00
2018-10-09T15:40:06.739Z,101650.00
2018-10-09T15:42:35.567Z,101657.00
2018-10-09T15:45:04.477Z,101655.00
2018-10-09T15:47:33.298Z,101650.00
2018-10-09T15:50:02.146Z,101660.00
2018-10-09T15:52:31.096Z,101663.00
2018-10-09T15:55:00.562Z,101656.00
2018-10-09T15:57:29.436Z,101666.00
2018-10-09T15:59:58.385Z,101667.00
2018-10-09T16:02:27.251Z,101663.00
2018-10-09T16:04:56.146Z,101665.00
2018-10-09T16:07:25.002Z,101658.00
2018-10-09T16:09:53.894Z,101659.00
2018-10-09T16:12:22.867Z,101659.00
2018-10-09T16:14:51.732Z,101664.00
2018-10-09T16:17:20.664Z,101658.00
2018-10-09T16:19:49.616Z,101657.00
2018-10-09T16:22:18.487Z,101664.00
2018-10-09T16:24:47.351Z,101660.00
2018-10-09T16:27:16.224Z,101665.00
2018-10-09T16:29:45.235Z,101669.00
2018-10-09T16:32:14.351Z,101675.00
2018-10-09T16:34:43.259Z,101671.00
2018-10-09T16:37:12.127Z,101674.00
2018-10-09T16:39:40.981Z,101675.00
2018-10-09T16:42:09.845Z,101669.00
2018-10-09T16:44:38.714Z,101670.00
2018-10-09T16:47:07.787Z,101668.00
2018-10-09T16:49:38.011Z,101667.00
2018-10-09T16:52:07.152Z,101671.00
2018-10-09T16:54:36.034Z,101675.00
2018-10-09T16:57:04.904Z,101680.00
2018-10-09T16:59:33.824Z,101681.00
2018-10-09T17:02:02.761Z,101688.00
2018-10-09T17:04:31.775Z,101691.00
2018-10-09T17:07:00.620Z,101686.00
2018-10-09T17:09:29.504Z,101688.00
2018-10-09T17:11:58.368Z,101692.00
2018-10-09T17:14:27.258Z,101686.00
2018-10-09T17:16:56.165Z,101693.00
2018-10-09T17:19:25.063Z,101693.00
2018-10-09T17:21:53.963Z,101694.00
2018-10-09T17:24:22.874Z,101695.00
2018-10-09T17:26:51.824Z,101698.00
2018-10-09T17:29:20.653Z,101701.00
2018-10-09T17:31:49.811Z,101697.00
2018-10-09T17:34:18.672Z,101697.00
2018-10-09T17:36:47.596Z,101697.00
2018-10-09T17:39:16.548Z,101705.00
2018-10-09T17:41:45.403Z,101709.00
2018-10-09T17:44:14.311Z,101703.00
2018-10-09T17:46:43.244Z,101697.00
2018-10-09T17:49:12.125Z,101697.00
2018-10-09T17:51:41.152Z,101694.00
2018-10-09T17:54:10.117Z,101703.00
2018-10-09T17:56:39.036Z,101703.00
2018-10-09T17:59:07.946Z,101696.00
2018-10-09T18:01:36.811Z,101705.00
2018-10-09T18:04:05.695Z,101696.00
2018-10-09T18:06:35.469Z,101697.00
2018-10-09T18:09:07.329Z,101700.00
2018-10-09T18:11:36.265Z,101707.00
2018-10-09T18:14:05.193Z,101706.00
2018-10-09T18:16:34.093Z,101697.00
2018-10-09T18:19:03.152Z,101691.00
2018-10-09T18:21:32.278Z,101695.00
2018-10-09T18:24:01.164Z,101692.00
2018-10-09T18:26:30.024Z,101694.00
2018-10-09T18:28:58.974Z,101690.00
2018-10-09T18:31:28.121Z,101696.00
2018-10-09T18:33:56.994Z,101688.00
2018-10-09T18:36:25.876Z,101696.00
2018-10-09T18:38:54.901Z,101694.00
2018-10-09T18:41:23.897Z,101688.00
2018-10-09T18:43:52.708Z,101693.00
2018-10-09T18:46:21.582Z,101695.00
2018-10-09T18:48:50.527Z,101696.00
2018-10-09T18:51:19.388Z,101691.00
2018-10-09T18:53:48.291Z,101691.00
2018-10-09T18:56:17.139Z,101699.00
2018-10-09T18:58:46.044Z,101696.00
2018-10-09T19:01:14.936Z,101702.00
2018-10-09T19:03:43.820Z,101698.00
2018-10-09T19:06:12.735Z,101692.00
2018-10-09T19:08:41.704Z,101706.00
2018-10-09T19:11:11.088Z,101695.00
2018-10-09T19:13:39.956Z,101696.00
2018-10-09T19:16:08.864Z,101693.00
2018-10-09T19:18:37.771Z,101701.00
2018-10-09T19:21:06.885Z,101697.00
2018-10-09T19:23:36.162Z,101698.00
2018-10-09T19:26:05.119Z,101701.00
2018-10-09T19:28:34.012Z,101700.00
2018-10-09T19:31:02.892Z,101704.00
2018-10-09T19:33:31.879Z,101704.00
2018-10-09T19:36:00.889Z,101709.00
2018-10-09T19:38:29.795Z,101707.00
2018-10-09T19:40:59.043Z,101706.00
2018-10-09T19:43:27.925Z,101712.00
2018-10-09T19:45:56.804Z,101706.00
2018-10-09T19:48:25.721Z,101709.00
2018-10-09T19:50:54.711Z,101710.00
2018-10-09T19:53:23.588Z,101711.00
2018-10-09T19:55:52.508Z,101701.00
2018-10-09T19:58:28.205Z,101706.00
2018-10-09T20:00:59.776Z,101708.00
2018-10-09T20:03:28.709Z,101704.00
2018-10-09T20:05:57.571Z,101708.00
2018-10-09T20:08:26.544Z,101700.00
2018-10-09T20:10:55.707Z,101696.00
2018-10-09T20:13:24.618Z,101698.00
2018-10-09T20:15:53.492Z,101699.00
2018-10-09T20:18:22.626Z,101698.00
2018-10-09T20:20:51.677Z,101701.00
2018-10-09T20:23:20.494Z,101703.00
2018-10-09T20:25:49.424Z,101702.00
2018-10-09T20:28:18.271Z,101697.00
2018-10-09T20:30:47.227Z,101701.00
2018-10-09T20:33:17.160Z,101701.00
2018-10-09T20:35:45.974Z,101709.00
2018-10-09T20:38:15.635Z,101715.00
2018-10-09T20:40:44.538Z,101715.00
2018-10-09T20:43:13.428Z,101715.00
2018-10-09T20:45:42.448Z,101715.00
2018-10-09T20:48:11.374Z,101712.00
2018-10-09T20:50:40.306Z,101719.00
2018-10-09T20:53:09.103Z,101724.00
2018-10-09T20:55:41.559Z,101712.00
2018-10-09T20:58:11.544Z,101715.00
2018-10-09T21:00:40.763Z,101724.00
2018-10-09T21:03:09.641Z,101725.00
2018-10-09T21:05:38.620Z,101714.00
2018-10-09T21:08:07.459Z,101725.00
2018-10-09T21:10:36.513Z,101724.00
2018-10-09T21:13:05.796Z,101726.00
2018-10-09T21:15:34.688Z,101726.00
2018-10-09T21:18:03.723Z,101722.00
2018-10-09T21:20:32.502Z,101725.00
2018-10-09T21:23:01.458Z,101723.00
2018-10-09T21:25:30.366Z,101718.00
2018-10-09T21:27:59.271Z,101717.00
2018-10-09T21:30:28.170Z,101726.00
2018-10-09T21:32:57.111Z,101727.00
2018-10-09T21:35:26.125Z,101718.00
2018-10-09T21:37:55.024Z,101726.00
2018-10-09T21:40:23.967Z,101725.00
2018-10-09T21:42:52.822Z,101725.00
2018-10-09T21:45:21.715Z,101728.00
2018-10-09T21:47:56.008Z,101725.00
2018-10-09T21:50:24.919Z,101728.00
2018-10-09T21:52:53.777Z,101721.00
2018-10-09T21:55:22.937Z,101732.00
2018-10-09T21:57:51.809Z,101735.00
2018-10-09T22:00:20.771Z,101736.00
2018-10-09T22:02:49.616Z,101730.00
2018-10-09T22:05:18.503Z,101733.00
2018-10-09T22:07:47.383Z,101739.00
2018-10-09T22:10:16.296Z,101726.00
2018-10-09T22:12:45.158Z,101734.00
2018-10-09T22:15:14.032Z,101735.00
2018-10-09T22:17:42.906Z,101731.00
2018-10-09T22:20:11.798Z,101737.00
2018-10-09T22:22:40.635Z,101734.00
2018-10-09T22:25:09.512Z,101737.00
2018-10-09T22:27:38.359Z,101731.00
2018-10-09T22:30:07.223Z,101734.00
2018-10-09T22:32:36.062Z,101733.00
2018-10-09T22:35:04.910Z,101737.00
2018-10-09T22:37:33.751Z,101735.00
2018-10-09T22:40:02.606Z,101734.00
2018-10-09T22:42:31.465Z,101733.00
2018-10-09T22:45:00.351Z,101730.00
2018-10-09T22:47:29.215Z,101725.00
2018-10-09T22:49:58.079Z,101734.00
2018-10-09T22:52:26.948Z,101729.00
2018-10-09T22:54:55.881Z,101736.00
2018-10-09T22:57:24.757Z,101735.00
2018-10-09T22:59:53.647Z,101733.00
2018-10-09T23:02:22.479Z,101729.00
2018-10-09T23:04:51.334Z,101735.00
2018-10-09T23:07:20.154Z,101738.00
2018-10-09T23:09:49.049Z,101729.00
2018-10-09T23:12:17.940Z,101732.00
2018-10-09T23:14:47.051Z,101745.00
2018-10-09T23:17:15.919Z,101739.00
2018-10-09T23:19:44.829Z,101745.00
2018-10-09T23:22:13.896Z,101740.00
2018-10-09T23:24:42.759Z,101739.00
2018-10-09T23:27:11.587Z,101735.00
2018-10-09T23:29:40.459Z,101745.00
2018-10-09T23:32:09.326Z,101745.00
2018-10-09T23:34:38.166Z,101734.00
2018-10-09T23:37:07.006Z,101746.00
2018-10-09T23:39:35.857Z,101741.00
2018-10-09T23:42:04.740Z,101742.00
2018-10-09T23:44:33.585Z,101740.00
2018-10-09T23:47:02.500Z,101737.00
2018-10-09T23:49:31.334Z,101735.00
2018-10-09T23:52:00.232Z,101737.00
2018-10-09T23:54:35.915Z,101747.00
2018-10-09T23:57:04.783Z,101739.00
2018-10-09T23:59:33.622Z,101727.00
